Time;durP1;ratioP1;P1;durP2;ratioP2;P2;SDS_P1;SDS_P2;PMS_P1;PMS_P2;Temp;Humidity;BMP_temperature;BMP_pressure;BME280_temperature;BME280_humidity;BME280_pressure;Samples;Min_cycle;Max_cycle;Signal;HPM_P1;HPM_P2
2023/10/21 00:03:08;;;;;;;;;;;13.50;99.90;;;;;;8359909;28;19925;-71
2023/10/21 00:07:10;;;;;;;;;;;13.50;99.90;;;;;;8344166;28;19925;-71
2023/10/21 00:11:12;;;;;;;;;;;13.50;99.90;;;;;;8344765;28;19925;-71
2023/10/21 00:15:14;;;;;;;;;;;13.40;99.90;;;;;;8359409;28;19982;-71
2023/10/21 00:19:15;;;;;;;;;;;13.40;99.90;;;;;;8358272;28;19958;-71
2023/10/21 00:23:17;;;;;;;;;;;13.40;99.90;;;;;;8353135;28;19932;-71
2023/10/21 00:27:19;;;;;;;;;;;13.40;99.90;;;;;;8359253;28;19925;-71
2023/10/21 00:31:20;;;;;;;;;;;13.40;99.90;;;;;;8354484;28;19931;-71
2023/10/21 00:35:23;;;;;;;;;;;13.40;99.90;;;;;;8357644;28;19986;-71
2023/10/21 00:39:24;;;;;;;;;;;13.30;99.90;;;;;;8354241;28;19924;-71
2023/10/21 00:43:36;;;;;;;;;;;13.40;99.90;;;;;;8351988;28;19932;-71
2023/10/21 00:47:38;;;;;;;;;;;13.30;99.90;;;;;;8354036;28;19925;-71
2023/10/21 00:51:40;;;;;;;;;;;13.30;99.90;;;;;;8355506;28;19933;-71
2023/10/21 00:55:42;;;;;;;;;;;13.30;99.90;;;;;;8351988;28;19925;-71
2023/10/21 00:59:44;;;;;;;;;;;13.30;99.90;;;;;;8354735;28;19973;-71
2023/10/21 01:03:46;;;;;;;;;;;13.30;99.90;;;;;;8359453;28;20380;-71
2023/10/21 01:17:54;;;;;;;;;;;13.20;99.90;;;;;;8339043;28;19928;-70
2023/10/21 01:21:56;;;;;;;;;;;13.20;99.90;;;;;;8357286;28;20320;-70
2023/10/21 01:25:58;;;;;;;;;;;13.10;99.90;;;;;;8351505;28;20379;-71
2023/10/21 01:30:00;;;;;;;;;;;13.20;99.90;;;;;;8355755;28;20265;-71
2023/10/21 01:34:01;;;;;;;;;;;13.20;99.90;;;;;;8354221;28;19925;-70
2023/10/21 01:38:03;;;;;;;;;;;13.10;99.90;;;;;;8343171;28;20574;-71
2023/10/21 01:42:05;;;;;;;;;;;13.10;99.90;;;;;;8342190;28;19925;-70
2023/10/21 01:46:06;;;;;;;;;;;13.10;99.90;;;;;;8343833;28;19990;-71
2023/10/21 01:50:09;;;;;;;;;;;13.10;99.90;;;;;;8345779;28;20059;-70
2023/10/21 01:54:11;;;;;;;;;;;13.00;99.90;;;;;;8349885;28;20372;-71
2023/10/21 01:58:12;;;;;;;;;;;13.00;99.90;;;;;;8349327;28;20034;-70
2023/10/21 02:02:14;;;;;;;;;;;13.00;99.90;;;;;;8350343;28;19924;-71
2023/10/21 02:06:16;;;;;;;;;;;13.00;99.90;;;;;;8357816;28;20265;-70
2023/10/21 02:10:18;;;;;;;;;;;13.00;99.90;;;;;;8344920;28;20353;-71
2023/10/21 02:14:22;;;;;;;;;;;13.00;99.90;;;;;;8354079;28;20346;-71
2023/10/21 02:18:23;;;;;;;;;;;13.00;99.90;;;;;;8357035;28;20391;-71
2023/10/21 02:22:26;;;;;;;;;;;13.00;99.90;;;;;;8354018;28;20236;-71
2023/10/21 02:26:27;;;;;;;;;;;13.00;99.90;;;;;;8350878;28;20373;-71
2023/10/21 02:30:29;;;;;;;;;;;13.00;99.90;;;;;;8346806;28;20395;-70
2023/10/21 02:34:31;;;;;;;;;;;12.90;99.90;;;;;;8350018;28;19933;-71
2023/10/21 02:38:32;;;;;;;;;;;12.90;99.90;;;;;;8349754;28;19947;-71
2023/10/21 02:42:34;;;;;;;;;;;13.00;99.90;;;;;;8349506;28;19924;-70
2023/10/21 02:46:36;;;;;;;;;;;12.90;99.90;;;;;;8354064;28;19933;-70
2023/10/21 02:50:38;;;;;;;;;;;12.90;99.90;;;;;;8349040;28;20399;-71
2023/10/21 02:54:39;;;;;;;;;;;12.90;99.90;;;;;;8343690;28;19924;-71
2023/10/21 02:58:41;;;;;;;;;;;12.90;99.90;;;;;;8348585;28;19971;-70
2023/10/21 03:02:43;;;;;;;;;;;13.00;99.90;;;;;;8357016;28;19925;-71
2023/10/21 03:06:45;;;;;;;;;;;12.90;99.90;;;;;;8361039;28;19929;-71
2023/10/21 03:10:48;;;;;;;;;;;12.90;99.90;;;;;;8348929;28;20384;-71
2023/10/21 03:14:49;;;;;;;;;;;12.90;99.90;;;;;;8360369;28;19936;-71
2023/10/21 03:18:51;;;;;;;;;;;12.90;99.90;;;;;;8359636;28;19990;-71
2023/10/21 03:22:53;;;;;;;;;;;12.90;99.90;;;;;;8360228;28;20291;-70
2023/10/21 03:26:54;;;;;;;;;;;12.90;99.90;;;;;;8355568;28;19929;-70
2023/10/21 03:30:57;;;;;;;;;;;12.90;99.90;;;;;;8366244;28;19924;-71
2023/10/21 03:34:59;;;;;;;;;;;12.90;99.90;;;;;;8355226;28;20331;-70
2023/10/21 03:39:00;;;;;;;;;;;13.00;99.90;;;;;;8348496;28;19935;-70
2023/10/21 03:43:02;;;;;;;;;;;13.00;99.90;;;;;;8346780;28;19970;-70
2023/10/21 03:47:04;;;;;;;;;;;12.90;99.90;;;;;;8351180;28;19983;-70
2023/10/21 03:51:11;;;;;;;;;;;12.90;99.90;;;;;;8357073;28;19932;-70
2023/10/21 03:55:12;;;;;;;;;;;12.90;99.90;;;;;;8358118;28;19933;-70
2023/10/21 03:59:14;;;;;;;;;;;12.90;99.90;;;;;;8352270;28;19967;-70
2023/10/21 04:03:16;;;;;;;;;;;12.90;99.90;;;;;;8353048;28;20392;-71
2023/10/21 04:07:17;;;;;;;;;;;12.90;99.90;;;;;;8352795;28;19970;-71
2023/10/21 04:11:21;;;;;;;;;;;12.90;99.90;;;;;;8350886;28;20380;-70
2023/10/21 04:15:22;;;;;;;;;;;12.90;99.90;;;;;;8359434;28;19925;-71
2023/10/21 04:19:24;;;;;;;;;;;12.90;99.90;;;;;;8355251;28;19925;-71
2023/10/21 04:23:25;;;;;;;;;;;12.90;99.90;;;;;;8361484;28;19979;-71
2023/10/21 04:27:27;;;;;;;;;;;12.80;99.90;;;;;;8358622;28;19932;-71
2023/10/21 04:31:32;;;;;;;;;;;12.90;99.90;;;;;;8337148;28;19952;-71
2023/10/21 04:35:34;;;;;;;;;;;12.90;99.90;;;;;;8352116;28;19933;-71
2023/10/21 04:39:36;;;;;;;;;;;12.90;99.90;;;;;;8340031;28;19929;-71
2023/10/21 04:43:37;;;;;;;;;;;12.90;99.90;;;;;;8356184;28;19925;-71
2023/10/21 04:47:39;;;;;;;;;;;12.90;99.90;;;;;;8354850;28;19936;-70
2023/10/21 04:51:41;;;;;;;;;;;12.90;99.90;;;;;;8357096;28;20029;-71
2023/10/21 04:55:42;;;;;;;;;;;12.90;99.90;;;;;;8335783;28;20579;-70
2023/10/21 04:59:44;;;;;;;;;;;12.90;99.90;;;;;;8354409;28;19932;-70
2023/10/21 05:03:46;;;;;;;;;;;12.90;99.90;;;;;;8334573;28;19936;-71
2023/10/21 05:07:48;;;;;;;;;;;12.90;99.90;;;;;;8351642;28;19978;-70
2023/10/21 05:11:49;;;;;;;;;;;12.90;99.90;;;;;;8354095;28;19968;-70
2023/10/21 05:15:51;;;;;;;;;;;13.00;99.90;;;;;;8361280;28;19929;-70
2023/10/21 05:19:53;;;;;;;;;;;13.00;99.90;;;;;;8355431;28;20387;-70
2023/10/21 05:23:54;;;;;;;;;;;13.10;99.90;;;;;;8368747;28;19932;-71
2023/10/21 05:27:56;;;;;;;;;;;13.10;99.90;;;;;;8354859;28;19955;-70
2023/10/21 05:31:59;;;;;;;;;;;13.10;99.90;;;;;;8356340;28;19924;-70
2023/10/21 05:36:00;;;;;;;;;;;13.10;99.90;;;;;;8358239;28;20404;-71
2023/10/21 05:40:05;;;;;;;;;;;13.10;99.90;;;;;;8356801;28;19936;-70
2023/10/21 05:44:07;;;;;;;;;;;13.10;99.90;;;;;;8354180;28;19929;-70
2023/10/21 05:48:09;;;;;;;;;;;13.10;99.90;;;;;;8357558;28;19929;-71
2023/10/21 05:52:11;;;;;;;;;;;13.10;99.90;;;;;;8356322;28;19924;-70
2023/10/21 05:56:13;;;;;;;;;;;13.10;99.90;;;;;;8355971;28;20291;-70
2023/10/21 06:00:15;;;;;;;;;;;13.10;99.90;;;;;;8356994;28;19924;-70
2023/10/21 06:04:16;;;;;;;;;;;13.10;99.90;;;;;;8368436;28;19931;-71
2023/10/21 06:08:18;;;;;;;;;;;13.10;99.90;;;;;;8348434;28;19969;-71
2023/10/21 06:12:20;;;;;;;;;;;13.10;99.90;;;;;;8354050;28;19925;-70
2023/10/21 06:16:22;;;;;;;;;;;13.10;99.90;;;;;;8357322;28;19925;-71
2023/10/21 06:20:24;;;;;;;;;;;13.10;99.90;;;;;;8354341;28;19925;-70
2023/10/21 06:24:25;;;;;;;;;;;13.10;99.90;;;;;;8354116;28;19933;-71
2023/10/21 06:28:28;;;;;;;;;;;13.10;99.90;;;;;;8365152;28;19924;-71
2023/10/21 06:32:30;;;;;;;;;;;13.20;99.90;;;;;;8357628;28;19932;-71
2023/10/21 06:36:33;;;;;;;;;;;13.20;99.90;;;;;;8351534;28;19982;-71
2023/10/21 06:40:35;;;;;;;;;;;13.20;99.90;;;;;;8360598;28;19979;-71
2023/10/21 06:44:39;;;;;;;;;;;13.20;99.90;;;;;;8375400;28;19925;-70
2023/10/21 06:48:41;;;;;;;;;;;13.30;99.90;;;;;;8363298;28;19925;-71
2023/10/21 06:52:43;;;;;;;;;;;13.30;99.90;;;;;;8363124;28;19925;-71
2023/10/21 06:56:46;;;;;;;;;;;13.30;99.90;;;;;;8361708;28;19925;-71
2023/10/21 07:00:47;;;;;;;;;;;13.30;99.90;;;;;;8347223;28;19924;-70
2023/10/21 07:04:50;;;;;;;;;;;13.30;99.90;;;;;;8361212;28;19924;-70
2023/10/21 07:08:51;;;;;;;;;;;13.40;99.90;;;;;;8354952;28;19935;-71
2023/10/21 07:12:53;;;;;;;;;;;13.40;99.90;;;;;;8352151;28;19929;-70
2023/10/21 07:16:54;;;;;;;;;;;13.40;99.90;;;;;;8359941;28;19978;-70
2023/10/21 07:20:57;;;;;;;;;;;13.50;99.90;;;;;;8360561;28;19946;-70
2023/10/21 07:24:58;;;;;;;;;;;13.50;99.90;;;;;;8361570;28;19928;-70
2023/10/21 07:29:00;;;;;;;;;;;13.50;99.90;;;;;;8363592;28;19978;-70
2023/10/21 07:33:02;;;;;;;;;;;13.60;99.90;;;;;;8358257;28;20327;-70
2023/10/21 07:37:03;;;;;;;;;;;13.60;99.90;;;;;;8361515;28;19979;-70
2023/10/21 07:41:11;;;;;;;;;;;13.60;99.90;;;;;;8362330;28;19967;-70
2023/10/21 07:45:14;;;;;;;;;;;13.60;99.90;;;;;;8360539;28;19947;-70
2023/10/21 07:49:17;;;;;;;;;;;13.60;99.90;;;;;;8363449;28;19925;-70
2023/10/21 07:53:20;;;;;;;;;;;13.60;99.90;;;;;;8342470;28;19924;-70
2023/10/21 07:57:22;;;;;;;;;;;13.60;99.90;;;;;;8362221;28;20360;-71
2023/10/21 08:01:23;;;;;;;;;;;13.70;99.90;;;;;;8344027;28;19931;-70
2023/10/21 08:05:27;;;;;;;;;;;13.70;99.90;;;;;;8359877;28;19978;-71
2023/10/21 08:09:28;;;;;;;;;;;13.70;99.90;;;;;;8347541;28;19925;-70
2023/10/21 08:13:30;;;;;;;;;;;13.70;99.90;;;;;;8365081;28;19928;-70
2023/10/21 08:17:33;;;;;;;;;;;13.70;99.90;;;;;;8359503;28;19929;-70
2023/10/21 08:21:34;;;;;;;;;;;13.60;99.90;;;;;;8352111;28;19936;-69
2023/10/21 08:25:36;;;;;;;;;;;13.60;99.90;;;;;;8352729;28;19929;-69
2023/10/21 08:29:38;;;;;;;;;;;13.40;99.90;;;;;;8361349;28;19924;-71
2023/10/21 08:33:39;;;;;;;;;;;13.30;99.90;;;;;;8356701;28;19931;-69
2023/10/21 08:37:41;;;;;;;;;;;13.40;99.90;;;;;;8339190;28;19929;-70
2023/10/21 08:41:43;;;;;;;;;;;13.40;99.90;;;;;;8358595;28;19932;-71
2023/10/21 08:45:45;;;;;;;;;;;13.30;99.90;;;;;;8355825;28;19935;-70
2023/10/21 08:49:48;;;;;;;;;;;13.40;99.90;;;;;;8358358;28;19979;-70
2023/10/21 08:53:52;;;;;;;;;;;13.30;99.90;;;;;;8358744;28;19932;-70
2023/10/21 08:57:54;;;;;;;;;;;13.30;99.90;;;;;;8354659;28;19925;-70
2023/10/21 09:01:56;;;;;;;;;;;13.30;99.90;;;;;;8355466;28;19964;-69
2023/10/21 09:06:01;;;;;;;;;;;13.50;99.90;;;;;;8359275;28;19925;-69
2023/10/21 09:10:07;;;;;;;;;;;13.50;99.90;;;;;;8343234;28;19947;-69
2023/10/21 09:14:09;;;;;;;;;;;13.60;99.90;;;;;;8355427;28;19932;-69
2023/10/21 09:18:11;;;;;;;;;;;13.70;99.90;;;;;;8328703;28;19929;-70
2023/10/21 09:22:24;;;;;;;;;;;13.70;99.90;;;;;;8322184;28;19979;-69
2023/10/21 09:26:32;;;;;;;;;;;13.70;99.90;;;;;;8320783;28;19924;-69
2023/10/21 09:30:34;;;;;;;;;;;13.80;99.90;;;;;;8320155;28;19925;-69
2023/10/21 09:34:37;;;;;;;;;;;13.80;99.90;;;;;;8324485;28;19936;-70
2023/10/21 09:38:39;;;;;;;;;;;13.90;99.90;;;;;;8320772;28;19945;-70
2023/10/21 09:42:44;;;;;;;;;;;13.90;99.90;;;;;;8320902;28;20161;-69
2023/10/21 09:46:47;;;;;;;;;;;14.00;99.90;;;;;;8321816;28;19924;-70
2023/10/21 09:50:53;;;;;;;;;;;14.00;99.90;;;;;;8318917;28;19960;-69
2023/10/21 09:55:08;;;;;;;;;;;14.00;99.90;;;;;;8320477;28;19932;-70
2023/10/21 09:59:10;;;;;;;;;;;13.90;99.90;;;;;;8318267;28;19932;-70
2023/10/21 10:03:13;;;;;;;;;;;14.00;99.90;;;;;;8320865;28;20280;-70
2023/10/21 10:07:15;;;;;;;;;;;14.00;99.90;;;;;;8317270;28;19931;-69
2023/10/21 10:11:30;;;;;;;;;;;14.10;99.90;;;;;;8323447;28;19925;-69
2023/10/21 10:15:38;;;;;;;;;;;14.30;99.90;;;;;;8325960;28;19929;-69
2023/10/21 10:19:41;;;;;;;;;;;14.30;99.90;;;;;;8319131;28;19983;-69
2023/10/21 10:23:50;;;;;;;;;;;14.50;99.90;;;;;;8319775;28;19929;-70
2023/10/21 10:27:59;;;;;;;;;;;14.60;99.90;;;;;;8320812;28;19937;-69
2023/10/21 10:32:16;;;;;;;;;;;14.90;99.90;;;;;;8320393;28;19937;-69
2023/10/21 10:36:28;;;;;;;;;;;15.00;99.90;;;;;;8324716;28;19933;-69
2023/10/21 10:40:31;;;;;;;;;;;15.10;99.90;;;;;;8324376;28;20031;-70
2023/10/21 10:44:34;;;;;;;;;;;15.10;99.90;;;;;;8324065;28;19965;-69
2023/10/21 10:48:36;;;;;;;;;;;15.40;99.90;;;;;;8320167;28;19925;-70
2023/10/21 10:52:37;;;;;;;;;;;15.70;99.90;;;;;;8317300;28;19933;-70
2023/10/21 10:56:40;;;;;;;;;;;15.80;99.90;;;;;;8325284;28;19925;-69
2023/10/21 11:00:41;;;;;;;;;;;15.80;99.90;;;;;;8319797;28;19925;-70
2023/10/21 11:04:46;;;;;;;;;;;16.10;99.90;;;;;;8320853;28;19925;-70
2023/10/21 11:08:48;;;;;;;;;;;16.60;99.90;;;;;;8318307;28;19925;-69
2023/10/21 11:12:50;;;;;;;;;;;16.50;99.90;;;;;;8320941;28;19925;-70
2023/10/21 11:16:52;;;;;;;;;;;16.50;99.90;;;;;;8304056;28;19975;-69
2023/10/21 11:20:54;;;;;;;;;;;16.20;99.90;;;;;;8315543;28;19936;-70
2023/10/21 11:24:56;;;;;;;;;;;15.90;99.90;;;;;;8331306;28;20012;-70
2023/10/21 11:28:58;;;;;;;;;;;15.70;99.90;;;;;;8323934;28;19932;-70
2023/10/21 11:33:05;;;;;;;;;;;15.70;99.90;;;;;;8327794;28;19925;-70
2023/10/21 11:37:07;;;;;;;;;;;15.70;99.90;;;;;;8323948;28;19999;-70
2023/10/21 11:41:12;;;;;;;;;;;15.90;99.90;;;;;;8325635;28;20020;-70
2023/10/21 11:45:14;;;;;;;;;;;16.30;99.90;;;;;;8328150;28;19925;-70
2023/10/21 11:49:16;;;;;;;;;;;16.60;99.90;;;;;;8323114;28;19987;-71
2023/10/21 11:53:19;;;;;;;;;;;16.30;99.90;;;;;;8322165;28;19978;-70
2023/10/21 12:44:23;;;;;;;;;;;16.00;99.90;;;;;;8321491;28;20454;-69
2023/10/21 12:48:25;;;;;;;;;;;16.00;99.90;;;;;;8325348;28;19928;-70
2023/10/21 12:52:29;;;;;;;;;;;15.90;99.90;;;;;;8326696;28;19977;-71
2023/10/21 12:56:30;;;;;;;;;;;16.00;99.90;;;;;;8323980;28;19974;-69
2023/10/21 13:00:32;;;;;;;;;;;16.20;99.90;;;;;;8324625;28;20412;-70
2023/10/21 13:04:37;;;;;;;;;;;16.30;99.90;;;;;;8329665;28;19978;-71
2023/10/21 13:08:39;;;;;;;;;;;16.30;99.90;;;;;;8325707;28;20282;-71
2023/10/21 13:12:41;;;;;;;;;;;16.20;99.90;;;;;;8325104;28;20289;-70
2023/10/21 13:16:43;;;;;;;;;;;16.10;99.90;;;;;;8322791;28;19936;-71
2023/10/21 13:20:45;;;;;;;;;;;16.10;99.90;;;;;;8322495;28;19968;-70
2023/10/21 13:24:48;;;;;;;;;;;16.00;99.90;;;;;;8323675;28;20016;-70
2023/10/21 13:29:00;;;;;;;;;;;16.00;99.90;;;;;;8324888;28;20336;-71
2023/10/21 13:33:04;;;;;;;;;;;16.10;99.90;;;;;;8325488;28;19925;-70
2023/10/21 13:37:06;;;;;;;;;;;16.10;99.90;;;;;;8323702;28;19932;-71
2023/10/21 13:41:08;;;;;;;;;;;16.10;99.90;;;;;;8321969;28;19929;-71
2023/10/21 13:45:19;;;;;;;;;;;16.00;99.90;;;;;;8323134;28;20285;-71
2023/10/21 13:49:20;;;;;;;;;;;15.90;99.90;;;;;;8322880;28;19944;-70
2023/10/21 13:53:25;;;;;;;;;;;15.80;99.90;;;;;;8327068;28;19971;-70
2023/10/21 13:57:27;;;;;;;;;;;15.70;99.90;;;;;;8321272;28;20448;-71
2023/10/21 14:01:30;;;;;;;;;;;15.70;99.90;;;;;;8323225;28;19933;-71
2023/10/21 14:05:32;;;;;;;;;;;15.70;99.90;;;;;;8326561;28;20324;-71
2023/10/21 14:09:35;;;;;;;;;;;15.70;99.90;;;;;;8323541;28;20929;-71
2023/10/21 14:13:37;;;;;;;;;;;15.70;99.90;;;;;;8323243;28;19975;-70
2023/10/21 14:17:39;;;;;;;;;;;15.60;99.90;;;;;;8328138;28;19933;-70
2023/10/21 14:21:42;;;;;;;;;;;15.60;99.90;;;;;;8321475;28;22032;-70
2023/10/21 14:25:44;;;;;;;;;;;15.60;99.90;;;;;;8322811;28;19929;-71
2023/10/21 14:29:46;;;;;;;;;;;15.50;99.90;;;;;;8325321;28;19952;-70
2023/10/21 14:33:48;;;;;;;;;;;15.50;99.90;;;;;;8324468;28;19935;-70
2023/10/21 14:37:49;;;;;;;;;;;15.40;99.90;;;;;;8324116;28;19925;-70
2023/10/21 14:41:51;;;;;;;;;;;15.40;99.90;;;;;;8323512;28;19956;-71
2023/10/21 14:45:53;;;;;;;;;;;15.20;99.90;;;;;;8327202;28;20377;-70
2023/10/21 14:49:54;;;;;;;;;;;15.10;99.90;;;;;;8327029;28;19925;-71
2023/10/21 14:53:56;;;;;;;;;;;15.00;99.90;;;;;;8320845;28;19940;-70
2023/10/21 14:57:58;;;;;;;;;;;14.80;99.90;;;;;;8323966;28;19924;-69
2023/10/21 15:02:00;;;;;;;;;;;14.80;99.90;;;;;;8341867;28;19936;-70
2023/10/21 15:06:03;;;;;;;;;;;14.70;99.90;;;;;;8328977;28;19933;-70
2023/10/21 15:10:15;;;;;;;;;;;14.60;99.90;;;;;;8328998;28;19987;-70
2023/10/21 15:14:17;;;;;;;;;;;14.50;99.90;;;;;;8329997;28;19929;-70
2023/10/21 15:18:23;;;;;;;;;;;14.40;99.90;;;;;;8329423;28;20438;-69
2023/10/21 15:22:25;;;;;;;;;;;14.40;99.90;;;;;;8326705;28;19937;-71
2023/10/21 15:26:27;;;;;;;;;;;14.30;99.90;;;;;;8330743;28;19932;-70
2023/10/21 15:30:29;;;;;;;;;;;14.20;99.90;;;;;;8329994;28;19956;-70
2023/10/21 15:34:31;;;;;;;;;;;14.20;99.90;;;;;;8327985;28;19925;-71
2023/10/21 15:38:32;;;;;;;;;;;14.20;99.90;;;;;;8325430;28;19971;-71
2023/10/21 15:42:34;;;;;;;;;;;14.20;99.90;;;;;;8325207;28;20023;-71
2023/10/21 15:46:36;;;;;;;;;;;14.20;99.90;;;;;;8323347;28;19939;-70
2023/10/21 15:50:39;;;;;;;;;;;14.10;99.90;;;;;;8336919;28;19929;-70
2023/10/21 15:54:43;;;;;;;;;;;14.00;99.90;;;;;;8324099;28;20427;-71
2023/10/21 15:58:45;;;;;;;;;;;14.00;99.90;;;;;;8326558;28;19928;-71
2023/10/21 16:02:49;;;;;;;;;;;13.90;99.90;;;;;;8326427;28;19925;-70
2023/10/21 16:06:51;;;;;;;;;;;13.90;99.90;;;;;;8321007;28;19960;-71
2023/10/21 16:11:02;;;;;;;;;;;13.80;99.90;;;;;;8326716;28;19925;-71
2023/10/21 16:15:06;;;;;;;;;;;13.80;99.90;;;;;;8323169;28;19967;-70
2023/10/21 16:19:08;;;;;;;;;;;13.80;99.90;;;;;;8324599;28;19933;-71
2023/10/21 16:23:10;;;;;;;;;;;13.70;99.90;;;;;;8323694;28;19944;-71
2023/10/21 16:27:11;;;;;;;;;;;13.70;99.90;;;;;;8327242;28;19929;-71
2023/10/21 16:31:13;;;;;;;;;;;13.70;99.90;;;;;;8326741;28;19986;-71
2023/10/21 16:35:15;;;;;;;;;;;13.60;99.90;;;;;;8323189;28;19935;-70
2023/10/21 16:39:16;;;;;;;;;;;13.60;99.90;;;;;;8323836;28;19931;-71
2023/10/21 16:43:18;;;;;;;;;;;13.60;99.90;;;;;;8324152;28;19929;-70
2023/10/21 16:47:20;;;;;;;;;;;13.50;99.90;;;;;;8324898;28;20130;-70
2023/10/21 16:51:22;;;;;;;;;;;13.50;99.90;;;;;;8327040;28;20016;-70
2023/10/21 16:55:23;;;;;;;;;;;13.50;99.90;;;;;;8324684;28;20003;-71
2023/10/21 16:59:25;;;;;;;;;;;13.50;99.90;;;;;;8325109;28;20087;-69
2023/10/21 17:03:27;;;;;;;;;;;13.50;99.90;;;;;;8327187;28;19944;-71
2023/10/21 17:07:28;;;;;;;;;;;13.50;99.90;;;;;;8325628;28;19967;-70
2023/10/21 17:11:30;;;;;;;;;;;13.60;99.90;;;;;;8320038;28;19930;-70
2023/10/21 17:15:32;;;;;;;;;;;13.60;99.90;;;;;;8325653;28;19960;-70
2023/10/21 17:19:33;;;;;;;;;;;13.60;99.90;;;;;;8322331;28;19979;-71
2023/10/21 17:23:35;;;;;;;;;;;13.60;99.90;;;;;;8323046;28;19979;-70
2023/10/21 17:27:37;;;;;;;;;;;13.70;99.90;;;;;;8328285;28;19933;-70
2023/10/21 17:31:41;;;;;;;;;;;13.70;99.90;;;;;;8324818;28;20430;-70
2023/10/21 17:35:44;;;;;;;;;;;13.60;99.90;;;;;;8324064;28;24184;-70
2023/10/21 17:39:47;;;;;;;;;;;13.70;99.90;;;;;;8333943;28;19932;-70
2023/10/21 17:43:52;;;;;;;;;;;13.70;99.90;;;;;;8325567;28;19933;-70
2023/10/21 17:47:53;;;;;;;;;;;13.70;99.90;;;;;;8339001;28;19936;-70
2023/10/21 17:51:57;;;;;;;;;;;13.60;99.90;;;;;;8319540;28;19925;-70
2023/10/21 17:56:00;;;;;;;;;;;13.70;99.90;;;;;;8324376;28;19925;-70
2023/10/21 18:00:03;;;;;;;;;;;13.70;99.90;;;;;;8321163;28;20063;-70
2023/10/21 18:04:05;;;;;;;;;;;13.70;99.90;;;;;;8323203;28;19933;-70
2023/10/21 18:08:07;;;;;;;;;;;13.70;99.90;;;;;;8324003;28;20419;-70
2023/10/21 18:12:08;;;;;;;;;;;13.70;99.90;;;;;;8325551;28;20305;-71
2023/10/21 18:16:10;;;;;;;;;;;13.70;99.90;;;;;;8307857;28;19928;-71
2023/10/21 18:20:12;;;;;;;;;;;13.70;99.90;;;;;;8319602;28;19972;-71
2023/10/21 18:24:14;;;;;;;;;;;13.80;99.90;;;;;;8320523;28;19932;-70
2023/10/21 18:28:16;;;;;;;;;;;13.80;99.90;;;;;;8320229;28;20312;-70
2023/10/21 18:32:17;;;;;;;;;;;13.80;99.90;;;;;;8324573;28;20360;-70
2023/10/21 18:36:19;;;;;;;;;;;13.80;99.90;;;;;;8330727;28;19924;-71
2023/10/21 18:40:21;;;;;;;;;;;13.80;99.90;;;;;;8328282;28;20048;-70
2023/10/21 18:44:22;;;;;;;;;;;13.80;99.90;;;;;;8329834;28;19966;-71
2023/10/21 18:48:24;;;;;;;;;;;13.90;99.90;;;;;;8331310;28;19944;-70
2023/10/21 18:52:26;;;;;;;;;;;13.90;99.90;;;;;;8331296;28;19935;-71
2023/10/21 18:56:27;;;;;;;;;;;13.90;99.90;;;;;;8326990;28;19925;-70
2023/10/21 19:00:29;;;;;;;;;;;13.90;99.90;;;;;;8330823;28;19932;-70
2023/10/21 19:04:31;;;;;;;;;;;13.90;99.90;;;;;;8330966;28;19925;-70
2023/10/21 19:08:33;;;;;;;;;;;14.00;99.90;;;;;;8324509;28;19975;-70
2023/10/21 19:12:34;;;;;;;;;;;14.00;99.90;;;;;;8328923;28;19925;-71
2023/10/21 19:16:37;;;;;;;;;;;14.10;99.90;;;;;;8328707;28;19975;-70
2023/10/21 19:20:39;;;;;;;;;;;14.10;99.90;;;;;;8329492;28;19970;-70
2023/10/21 19:24:40;;;;;;;;;;;14.20;99.90;;;;;;8332776;28;19933;-71
2023/10/21 19:28:42;;;;;;;;;;;14.20;99.90;;;;;;8328572;28;20304;-70
2023/10/21 19:32:44;;;;;;;;;;;14.20;99.90;;;;;;8329778;28;20016;-71
2023/10/21 19:36:45;;;;;;;;;;;14.20;99.90;;;;;;8325368;28;20315;-71
2023/10/21 19:40:47;;;;;;;;;;;14.20;99.90;;;;;;8325982;28;19928;-70
2023/10/21 19:44:51;;;;;;;;;;;14.20;99.90;;;;;;8325688;28;19929;-70
2023/10/21 19:48:52;;;;;;;;;;;14.20;99.90;;;;;;8330218;28;19964;-70
2023/10/21 19:52:54;;;;;;;;;;;14.20;99.90;;;;;;8327100;28;19931;-70
2023/10/21 19:56:56;;;;;;;;;;;14.20;99.90;;;;;;8325644;28;20202;-71
2023/10/21 20:01:04;;;;;;;;;;;14.20;99.90;;;;;;8328961;28;19924;-70
2023/10/21 20:05:07;;;;;;;;;;;14.20;99.90;;;;;;8329153;28;20349;-71
2023/10/21 20:09:10;;;;;;;;;;;14.20;99.90;;;;;;8326782;28;19932;-70
2023/10/21 20:13:12;;;;;;;;;;;14.30;99.90;;;;;;8324299;28;19983;-70
2023/10/21 20:17:14;;;;;;;;;;;14.30;99.90;;;;;;8323355;28;19929;-70
2023/10/21 20:21:20;;;;;;;;;;;14.30;99.90;;;;;;8322530;28;19964;-70
2023/10/21 20:25:23;;;;;;;;;;;14.40;99.90;;;;;;8322948;28;19929;-71
2023/10/21 20:29:24;;;;;;;;;;;14.40;99.90;;;;;;8324382;28;19932;-70
2023/10/21 20:33:27;;;;;;;;;;;14.40;99.90;;;;;;8329475;28;19932;-71
2023/10/21 20:37:31;;;;;;;;;;;14.40;99.90;;;;;;8331582;28;19983;-70
2023/10/21 20:41:33;;;;;;;;;;;14.40;99.90;;;;;;8310345;28;19994;-69
2023/10/21 20:45:35;;;;;;;;;;;14.50;99.90;;;;;;8322199;28;20020;-67
2023/10/21 20:49:36;;;;;;;;;;;14.40;99.90;;;;;;8325830;28;20435;-68
2023/10/21 20:53:38;;;;;;;;;;;14.40;99.90;;;;;;8326443;28;19996;-69
2023/10/21 20:57:40;;;;;;;;;;;14.40;99.90;;;;;;8321478;28;19965;-68
2023/10/21 21:01:42;;;;;;;;;;;14.40;99.90;;;;;;8332353;28;19973;-69
2023/10/21 21:05:43;;;;;;;;;;;14.40;99.90;;;;;;8353504;28;20300;-68
2023/10/21 21:09:45;;;;;;;;;;;14.40;99.90;;;;;;8353203;28;19924;-68
2023/10/21 21:13:47;;;;;;;;;;;14.40;99.90;;;;;;8354223;28;19994;-69
2023/10/21 21:17:49;;;;;;;;;;;14.40;99.90;;;;;;8357433;28;19925;-69
2023/10/21 21:21:55;;;;;;;;;;;14.40;99.90;;;;;;8353764;28;19971;-67
2023/10/21 21:25:57;;;;;;;;;;;14.40;99.90;;;;;;8357142;28;20433;-67
2023/10/21 21:29:59;;;;;;;;;;;14.40;99.90;;;;;;8354113;28;19932;-68
2023/10/21 21:34:00;;;;;;;;;;;14.40;99.90;;;;;;8354858;28;20055;-68
2023/10/21 21:38:02;;;;;;;;;;;14.40;99.90;;;;;;8354893;28;19932;-68
2023/10/21 21:42:04;;;;;;;;;;;14.40;99.90;;;;;;8336717;28;19925;-68
2023/10/21 21:46:12;;;;;;;;;;;14.40;99.90;;;;;;8358011;28;20453;-68
2023/10/21 21:50:13;;;;;;;;;;;14.40;99.90;;;;;;8355481;28;19932;-69
2023/10/21 21:54:15;;;;;;;;;;;14.40;99.90;;;;;;8358998;28;19932;-69
2023/10/21 21:58:17;;;;;;;;;;;14.50;99.90;;;;;;8354146;28;19929;-68
2023/10/21 22:02:18;;;;;;;;;;;14.50;99.90;;;;;;8354547;28;19935;-68
2023/10/21 22:06:20;;;;;;;;;;;14.50;99.90;;;;;;8332653;28;20376;-69
2023/10/21 22:10:22;;;;;;;;;;;14.50;99.90;;;;;;8350044;28;19932;-69
2023/10/21 22:14:23;;;;;;;;;;;14.50;99.90;;;;;;8352516;28;19933;-68
2023/10/21 22:18:27;;;;;;;;;;;14.50;99.90;;;;;;8352447;28;20708;-67
2023/10/21 22:22:29;;;;;;;;;;;14.50;99.90;;;;;;8351926;28;19968;-68
2023/10/21 22:26:30;;;;;;;;;;;14.50;99.90;;;;;;8353074;28;19925;-68
2023/10/21 22:30:32;;;;;;;;;;;14.50;99.90;;;;;;8352295;28;20426;-68
2023/10/21 22:34:34;;;;;;;;;;;14.40;99.90;;;;;;8353805;28;20343;-68
2023/10/21 22:38:35;;;;;;;;;;;14.40;99.90;;;;;;8350211;28;20463;-68
2023/10/21 22:42:37;;;;;;;;;;;14.30;99.90;;;;;;8355010;28;19975;-68
2023/10/21 22:46:40;;;;;;;;;;;14.20;99.90;;;;;;8352291;28;20291;-67
2023/10/21 22:50:42;;;;;;;;;;;14.10;99.90;;;;;;8352061;28;19960;-67
2023/10/21 22:54:45;;;;;;;;;;;14.10;99.90;;;;;;8355057;28;19929;-68
2023/10/21 22:58:47;;;;;;;;;;;13.90;99.90;;;;;;8351427;28;19924;-68
2023/10/21 23:02:49;;;;;;;;;;;13.80;99.90;;;;;;8333870;28;20376;-69
2023/10/21 23:06:51;;;;;;;;;;;13.80;99.90;;;;;;8353792;28;19929;-68
2023/10/21 23:10:54;;;;;;;;;;;13.60;99.90;;;;;;8347377;28;19979;-68
2023/10/21 23:14:55;;;;;;;;;;;13.50;99.90;;;;;;8349093;28;19929;-68
2023/10/21 23:18:57;;;;;;;;;;;13.40;99.90;;;;;;8352354;28;20265;-67
2023/10/21 23:22:59;;;;;;;;;;;13.30;99.90;;;;;;8357192;28;19979;-68
2023/10/21 23:27:00;;;;;;;;;;;13.20;99.90;;;;;;8360418;28;19932;-67
2023/10/21 23:31:02;;;;;;;;;;;13.10;99.90;;;;;;8357671;28;19925;-68
2023/10/21 23:35:05;;;;;;;;;;;13.10;99.90;;;;;;8358154;28;20018;-68
2023/10/21 23:39:08;;;;;;;;;;;13.00;99.90;;;;;;8358870;28;19932;-67
2023/10/21 23:43:11;;;;;;;;;;;13.00;99.90;;;;;;8357913;28;20451;-68
2023/10/21 23:47:13;;;;;;;;;;;12.90;99.90;;;;;;8357131;28;19979;-68
2023/10/21 23:51:14;;;;;;;;;;;12.90;99.90;;;;;;8357236;28;19964;-67
2023/10/21 23:55:16;;;;;;;;;;;12.90;99.90;;;;;;8356224;28;20331;-67
2023/10/21 23:59:18;;;;;;;;;;;12.90;99.90;;;;;;8358262;28;19971;-69
